sensor_id;sensor_type;location;lat;lon;timestamp;pressure;altitude;pressure_sealevel;temperature;humidity
4858;BME280;58975;51.978;8.472;2024-03-02T00:01:03;99075.28;;;4.52;100.00
4858;BME280;58975;51.978;8.472;2024-03-02T00:06:00;99075.63;;;4.48;100.00
4858;BME280;58975;51.978;8.472;2024-03-02T00:10:58;99080.88;;;4.48;100.00
4858;BME280;58975;51.978;8.472;2024-03-02T00:15:56;99077.28;;;4.38;100.00
4858;BME280;58975;51.978;8.472;2024-03-02T00:20:57;99083.75;;;4.34;100.00
4858;BME280;58975;51.978;8.472;2024-03-02T00:25:54;99075.09;;;4.32;100.00
4858;BME280;58975;51.978;8.472;2024-03-02T00:35:52;99056.69;;;4.43;100.00
4858;BME280;58975;51.978;8.472;2024-03-02T00:40:48;99064.03;;;4.50;100.00
4858;BME280;58975;51.978;8.472;2024-03-02T00:45:45;99049.03;;;4.51;100.00
4858;BME280;58975;51.978;8.472;2024-03-02T00:50:41;99052.28;;;4.54;100.00
4858;BME280;58975;51.978;8.472;2024-03-02T00:55:39;99038.84;;;4.57;100.00
4858;BME280;58975;51.978;8.472;2024-03-02T01:00:40;99037.06;;;4.69;100.00
4858;BME280;58975;51.978;8.472;2024-03-02T01:05:41;99042.78;;;4.63;100.00
4858;BME280;58975;51.978;8.472;2024-03-02T01:10:38;99056.72;;;4.65;100.00
4858;BME280;58975;51.978;8.472;2024-03-02T01:15:34;99047.59;;;4.58;100.00
4858;BME280;58975;51.978;8.472;2024-03-02T01:20:31;99049.50;;;4.45;100.00
4858;BME280;58975;51.978;8.472;2024-03-02T01:25:27;99045.78;;;4.47;100.00
4858;BME280;58975;51.978;8.472;2024-03-02T01:30:24;99048.31;;;4.49;100.00
4858;BME280;58975;51.978;8.472;2024-03-02T01:35:20;99044.22;;;4.45;100.00
4858;BME280;58975;51.978;8.472;2024-03-02T01:40:17;99030.34;;;4.43;100.00
4858;BME280;58975;51.978;8.472;2024-03-02T01:45:13;99032.34;;;4.39;100.00
4858;BME280;58975;51.978;8.472;2024-03-02T01:50:11;99041.09;;;4.40;100.00
4858;BME280;58975;51.978;8.472;2024-03-02T01:55:08;99023.38;;;4.42;100.00
4858;BME280;58975;51.978;8.472;2024-03-02T02:00:05;99023.63;;;4.39;100.00
4858;BME280;58975;51.978;8.472;2024-03-02T02:05:01;99019.56;;;4.46;100.00
4858;BME280;58975;51.978;8.472;2024-03-02T02:09:58;99007.31;;;4.45;100.00
4858;BME280;58975;51.978;8.472;2024-03-02T02:14:55;99007.47;;;4.54;100.00
4858;BME280;58975;51.978;8.472;2024-03-02T02:19:52;98994.63;;;4.50;100.00
4858;BME280;58975;51.978;8.472;2024-03-02T02:24:48;98998.97;;;4.51;100.00
4858;BME280;58975;51.978;8.472;2024-03-02T02:29:45;98986.47;;;4.53;100.00
4858;BME280;58975;51.978;8.472;2024-03-02T02:34:41;98983.00;;;4.52;100.00
4858;BME280;58975;51.978;8.472;2024-03-02T02:39:37;98973.91;;;4.56;100.00
4858;BME280;58975;51.978;8.472;2024-03-02T02:44:34;98957.13;;;4.57;100.00
4858;BME280;58975;51.978;8.472;2024-03-02T02:49:31;98960.59;;;4.69;100.00
4858;BME280;58975;51.978;8.472;2024-03-02T02:54:27;98950.28;;;4.66;100.00
4858;BME280;58975;51.978;8.472;2024-03-02T02:59:24;98945.25;;;4.74;100.00
4858;BME280;58975;51.978;8.472;2024-03-02T03:04:20;98934.69;;;4.74;100.00
4858;BME280;58975;51.978;8.472;2024-03-02T03:09:16;98930.25;;;4.74;100.00
4858;BME280;58975;51.978;8.472;2024-03-02T03:14:13;98933.72;;;4.75;100.00
4858;BME280;58975;51.978;8.472;2024-03-02T03:19:09;98930.84;;;4.78;100.00
4858;BME280;58975;51.978;8.472;2024-03-02T03:24:06;98938.16;;;4.74;100.00
4858;BME280;58975;51.978;8.472;2024-03-02T03:29:02;98935.91;;;4.70;100.00
4858;BME280;58975;51.978;8.472;2024-03-02T03:33:59;98935.06;;;4.69;100.00
4858;BME280;58975;51.978;8.472;2024-03-02T03:38:55;98936.84;;;4.69;100.00
4858;BME280;58975;51.978;8.472;2024-03-02T03:43:52;98950.28;;;4.66;100.00
4858;BME280;58975;51.978;8.472;2024-03-02T03:48:48;98945.47;;;4.71;100.00
4858;BME280;58975;51.978;8.472;2024-03-02T03:53:46;98939.25;;;4.61;100.00
4858;BME280;58975;51.978;8.472;2024-03-02T03:58:42;98942.16;;;4.58;100.00
4858;BME280;58975;51.978;8.472;2024-03-02T04:03:38;98940.47;;;4.57;100.00
4858;BME280;58975;51.978;8.472;2024-03-02T04:08:35;98944.66;;;4.59;100.00
4858;BME280;58975;51.978;8.472;2024-03-02T04:13:31;98956.03;;;4.60;100.00
4858;BME280;58975;51.978;8.472;2024-03-02T04:18:28;98947.88;;;4.63;100.00
4858;BME280;58975;51.978;8.472;2024-03-02T04:23:26;98942.13;;;4.69;100.00
4858;BME280;58975;51.978;8.472;2024-03-02T04:28:24;98952.78;;;4.78;100.00
4858;BME280;58975;51.978;8.472;2024-03-02T04:33:20;98951.59;;;4.71;100.00
4858;BME280;58975;51.978;8.472;2024-03-02T04:38:17;98961.28;;;4.71;100.00
4858;BME280;58975;51.978;8.472;2024-03-02T04:43:13;98961.06;;;4.74;100.00
4858;BME280;58975;51.978;8.472;2024-03-02T04:48:12;98970.78;;;4.73;100.00
4858;BME280;58975;51.978;8.472;2024-03-02T04:53:10;98980.72;;;4.70;100.00
4858;BME280;58975;51.978;8.472;2024-03-02T04:58:07;98975.47;;;4.70;100.00
4858;BME280;58975;51.978;8.472;2024-03-02T05:03:04;98978.44;;;4.76;100.00
4858;BME280;58975;51.978;8.472;2024-03-02T05:08:00;98987.44;;;4.74;100.00
4858;BME280;58975;51.978;8.472;2024-03-02T05:12:56;98994.13;;;4.67;100.00
4858;BME280;58975;51.978;8.472;2024-03-02T05:17:55;98997.75;;;4.66;100.00
4858;BME280;58975;51.978;8.472;2024-03-02T05:22:53;99002.03;;;4.67;100.00
4858;BME280;58975;51.978;8.472;2024-03-02T05:27:50;98999.66;;;4.64;100.00
4858;BME280;58975;51.978;8.472;2024-03-02T05:32:46;99008.53;;;4.63;100.00
4858;BME280;58975;51.978;8.472;2024-03-02T05:37:43;99005.19;;;4.61;100.00
4858;BME280;58975;51.978;8.472;2024-03-02T05:42:39;99001.59;;;4.62;100.00
4858;BME280;58975;51.978;8.472;2024-03-02T05:47:37;99006.88;;;4.51;100.00
4858;BME280;58975;51.978;8.472;2024-03-02T05:52:34;99007.56;;;4.53;100.00
4858;BME280;58975;51.978;8.472;2024-03-02T05:57:31;98995.09;;;4.44;100.00
4858;BME280;58975;51.978;8.472;2024-03-02T06:02:40;99005.88;;;4.41;100.00
4858;BME280;58975;51.978;8.472;2024-03-02T06:07:39;99007.81;;;4.50;100.00
4858;BME280;58975;51.978;8.472;2024-03-02T06:12:35;99014.03;;;4.49;100.00
4858;BME280;58975;51.978;8.472;2024-03-02T06:17:32;99011.25;;;4.39;100.00
4858;BME280;58975;51.978;8.472;2024-03-02T06:22:29;99018.22;;;4.40;100.00
4858;BME280;58975;51.978;8.472;2024-03-02T06:27:25;99023.50;;;4.51;100.00
4858;BME280;58975;51.978;8.472;2024-03-02T06:32:21;99031.28;;;4.53;100.00
4858;BME280;58975;51.978;8.472;2024-03-02T06:37:19;99039.31;;;4.51;100.00
4858;BME280;58975;51.978;8.472;2024-03-02T06:42:15;99047.34;;;4.50;100.00
4858;BME280;58975;51.978;8.472;2024-03-02T06:47:12;99055.03;;;4.64;100.00
4858;BME280;58975;51.978;8.472;2024-03-02T06:52:08;99061.75;;;4.68;100.00
4858;BME280;58975;51.978;8.472;2024-03-02T06:57:05;99054.78;;;4.67;100.00
4858;BME280;58975;51.978;8.472;2024-03-02T07:02:02;99060.78;;;4.69;100.00
4858;BME280;58975;51.978;8.472;2024-03-02T07:06:58;99052.88;;;4.69;100.00
4858;BME280;58975;51.978;8.472;2024-03-02T07:11:55;99063.69;;;4.77;100.00
4858;BME280;58975;51.978;8.472;2024-03-02T07:16:51;99068.47;;;4.83;100.00
4858;BME280;58975;51.978;8.472;2024-03-02T07:21:48;99069.91;;;4.98;100.00
4858;BME280;58975;51.978;8.472;2024-03-02T07:26:45;99070.88;;;4.97;100.00
4858;BME280;58975;51.978;8.472;2024-03-02T07:31:45;99078.78;;;5.08;100.00
4858;BME280;58975;51.978;8.472;2024-03-02T07:36:41;99075.66;;;5.14;100.00
4858;BME280;58975;51.978;8.472;2024-03-02T07:41:38;99083.31;;;5.29;100.00
4858;BME280;58975;51.978;8.472;2024-03-02T07:46:34;99078.00;;;5.51;100.00
4858;BME280;58975;51.978;8.472;2024-03-02T07:51:31;99072.84;;;5.92;100.00
4858;BME280;58975;51.978;8.472;2024-03-02T07:56:27;99072.59;;;6.27;100.00
4858;BME280;58975;51.978;8.472;2024-03-02T08:01:24;99059.41;;;6.57;100.00
4858;BME280;58975;51.978;8.472;2024-03-02T08:06:21;99058.97;;;6.83;100.00
4858;BME280;58975;51.978;8.472;2024-03-02T08:11:18;99069.94;;;7.08;100.00
4858;BME280;58975;51.978;8.472;2024-03-02T08:16:18;99063.06;;;7.36;100.00
4858;BME280;58975;51.978;8.472;2024-03-02T08:21:16;99075.78;;;7.52;100.00
4858;BME280;58975;51.978;8.472;2024-03-02T08:26:13;99066.06;;;7.81;100.00
4858;BME280;58975;51.978;8.472;2024-03-02T08:31:09;99056.00;;;8.04;100.00
4858;BME280;58975;51.978;8.472;2024-03-02T08:36:06;99063.53;;;8.28;100.00
4858;BME280;58975;51.978;8.472;2024-03-02T08:41:06;99062.56;;;8.48;100.00
4858;BME280;58975;51.978;8.472;2024-03-02T08:46:03;99061.53;;;8.78;100.00
4858;BME280;58975;51.978;8.472;2024-03-02T08:51:00;99057.66;;;8.99;99.29
4858;BME280;58975;51.978;8.472;2024-03-02T08:55:56;99071.84;;;9.18;97.86
4858;BME280;58975;51.978;8.472;2024-03-02T09:00:56;99067.75;;;9.33;95.95
4858;BME280;58975;51.978;8.472;2024-03-02T09:05:52;99059.66;;;9.52;94.09
4858;BME280;58975;51.978;8.472;2024-03-02T09:10:49;99059.19;;;9.57;92.71
4858;BME280;58975;51.978;8.472;2024-03-02T09:15:45;99057.09;;;9.60;91.49
4858;BME280;58975;51.978;8.472;2024-03-02T09:20:42;99058.41;;;9.91;90.34
4858;BME280;58975;51.978;8.472;2024-03-02T09:25:38;99065.03;;;10.23;89.44
4858;BME280;58975;51.978;8.472;2024-03-02T09:30:37;99053.97;;;10.53;87.20
4858;BME280;58975;51.978;8.472;2024-03-02T09:35:33;99052.50;;;10.84;85.23
4858;BME280;58975;51.978;8.472;2024-03-02T09:40:30;99047.53;;;10.89;84.03
4858;BME280;58975;51.978;8.472;2024-03-02T09:45:26;99055.44;;;11.07;82.76
4858;BME280;58975;51.978;8.472;2024-03-02T09:50:23;99050.00;;;11.17;82.24
4858;BME280;58975;51.978;8.472;2024-03-02T09:55:20;99044.38;;;10.94;81.65
4858;BME280;58975;51.978;8.472;2024-03-02T10:00:17;99044.91;;;10.98;81.17
4858;BME280;58975;51.978;8.472;2024-03-02T10:05:23;99054.22;;;11.02;80.98
4858;BME280;58975;51.978;8.472;2024-03-02T10:10:20;99049.00;;;11.18;80.35
4858;BME280;58975;51.978;8.472;2024-03-02T10:15:23;99044.41;;;11.36;79.66
4858;BME280;58975;51.978;8.472;2024-03-02T10:20:24;99056.06;;;11.35;79.78
4858;BME280;58975;51.978;8.472;2024-03-02T10:25:31;99057.41;;;11.39;78.55
4858;BME280;58975;51.978;8.472;2024-03-02T10:30:47;99047.28;;;11.51;78.32
4858;BME280;58975;51.978;8.472;2024-03-02T10:35:48;99045.19;;;11.70;77.73
4858;BME280;58975;51.978;8.472;2024-03-02T10:40:48;99031.56;;;11.81;77.48
4858;BME280;58975;51.978;8.472;2024-03-02T10:45:47;99029.91;;;12.05;77.05
4858;BME280;58975;51.978;8.472;2024-03-02T10:50:45;99020.91;;;11.98;75.49
4858;BME280;58975;51.978;8.472;2024-03-02T10:55:41;99024.59;;;12.37;76.30
4858;BME280;58975;51.978;8.472;2024-03-02T11:00:39;99006.25;;;12.26;75.66
4858;BME280;58975;51.978;8.472;2024-03-02T11:05:43;99005.22;;;12.35;74.80
4858;BME280;58975;51.978;8.472;2024-03-02T11:11:02;99006.22;;;12.42;74.97
4858;BME280;58975;51.978;8.472;2024-03-02T11:16:06;99009.19;;;12.63;74.95
4858;BME280;58975;51.978;8.472;2024-03-02T11:21:06;99017.22;;;12.55;73.01
4858;BME280;58975;51.978;8.472;2024-03-02T11:26:22;99015.19;;;12.73;73.44
4858;BME280;58975;51.978;8.472;2024-03-02T11:31:21;99031.84;;;12.84;73.83
4858;BME280;58975;51.978;8.472;2024-03-02T11:36:17;99024.13;;;13.05;73.13
4858;BME280;58975;51.978;8.472;2024-03-02T11:41:14;99021.81;;;12.94;71.68
4858;BME280;58975;51.978;8.472;2024-03-02T11:46:11;99022.78;;;13.01;72.62
4858;BME280;58975;51.978;8.472;2024-03-02T11:51:08;99026.47;;;13.00;72.45
4858;BME280;58975;51.978;8.472;2024-03-02T11:56:06;99015.75;;;13.08;72.00
4858;BME280;58975;51.978;8.472;2024-03-02T12:01:05;99005.31;;;13.29;72.09
4858;BME280;58975;51.978;8.472;2024-03-02T12:06:02;99001.19;;;13.49;71.51
4858;BME280;58975;51.978;8.472;2024-03-02T12:11:00;98990.28;;;13.59;70.69
4858;BME280;58975;51.978;8.472;2024-03-02T12:15:59;98994.06;;;12.95;70.12
4858;BME280;58975;51.978;8.472;2024-03-02T12:20:56;99008.19;;;12.64;72.17
4858;BME280;58975;51.978;8.472;2024-03-02T12:25:54;98998.13;;;12.74;71.33
4858;BME280;58975;51.978;8.472;2024-03-02T12:30:51;98989.44;;;12.89;71.96
4858;BME280;58975;51.978;8.472;2024-03-02T12:35:49;98987.91;;;13.33;71.62
4858;BME280;58975;51.978;8.472;2024-03-02T12:40:48;98977.75;;;13.59;69.82
4858;BME280;58975;51.978;8.472;2024-03-02T12:45:45;98975.22;;;14.26;68.37
4858;BME280;58975;51.978;8.472;2024-03-02T12:50:41;98963.84;;;14.24;67.25
4858;BME280;58975;51.978;8.472;2024-03-02T12:55:38;98957.94;;;14.14;67.60
4858;BME280;58975;51.978;8.472;2024-03-02T13:00:35;98957.25;;;14.12;66.82
4858;BME280;58975;51.978;8.472;2024-03-02T13:05:32;98957.81;;;14.07;67.15
4858;BME280;58975;51.978;8.472;2024-03-02T13:10:29;98961.75;;;13.97;66.93
4858;BME280;58975;51.978;8.472;2024-03-02T13:15:28;98961.28;;;13.70;67.89
4858;BME280;58975;51.978;8.472;2024-03-02T13:20:30;98962.22;;;13.55;68.41
4858;BME280;58975;51.978;8.472;2024-03-02T13:25:27;98956.84;;;13.63;67.55
4858;BME280;58975;51.978;8.472;2024-03-02T13:30:26;98947.06;;;13.70;66.36
4858;BME280;58975;51.978;8.472;2024-03-02T13:35:24;98948.06;;;13.69;67.76
4858;BME280;58975;51.978;8.472;2024-03-02T13:40:20;98955.03;;;13.55;68.76
4858;BME280;58975;51.978;8.472;2024-03-02T13:45:17;98947.59;;;13.12;69.17
4858;BME280;58975;51.978;8.472;2024-03-02T13:50:14;98944.31;;;12.94;68.80
4858;BME280;58975;51.978;8.472;2024-03-02T13:55:11;98952.69;;;12.82;69.01
4858;BME280;58975;51.978;8.472;2024-03-02T14:00:07;98949.78;;;12.61;69.62
4858;BME280;58975;51.978;8.472;2024-03-02T14:05:07;98954.16;;;12.54;70.23
4858;BME280;58975;51.978;8.472;2024-03-02T14:10:08;98943.75;;;12.67;70.60
4858;BME280;58975;51.978;8.472;2024-03-02T14:15:05;98939.91;;;12.70;69.87
4858;BME280;58975;51.978;8.472;2024-03-02T14:20:02;98921.69;;;12.73;69.48
4858;BME280;58975;51.978;8.472;2024-03-02T14:25:01;98932.06;;;12.68;69.06
4858;BME280;58975;51.978;8.472;2024-03-02T14:29:57;98921.38;;;12.68;68.92
4858;BME280;58975;51.978;8.472;2024-03-02T14:34:54;98925.66;;;12.86;69.37
4858;BME280;58975;51.978;8.472;2024-03-02T14:39:51;98915.09;;;12.92;68.14
4858;BME280;58975;51.978;8.472;2024-03-02T14:44:48;98910.59;;;12.93;68.38
4858;BME280;58975;51.978;8.472;2024-03-02T14:49:44;98912.19;;;13.10;68.58
4858;BME280;58975;51.978;8.472;2024-03-02T14:54:41;98907.78;;;13.25;68.09
4858;BME280;58975;51.978;8.472;2024-03-02T14:59:38;98900.41;;;13.27;67.26
4858;BME280;58975;51.978;8.472;2024-03-02T15:04:35;98901.19;;;13.05;67.18
4858;BME280;58975;51.978;8.472;2024-03-02T15:09:32;98917.25;;;12.97;67.96
4858;BME280;58975;51.978;8.472;2024-03-02T15:14:31;98900.66;;;13.09;67.73
4858;BME280;58975;51.978;8.472;2024-03-02T15:19:27;98899.81;;;13.17;67.24
4858;BME280;58975;51.978;8.472;2024-03-02T15:24:24;98902.44;;;13.25;67.37
4858;BME280;58975;51.978;8.472;2024-03-02T15:29:22;98905.81;;;13.19;67.38
4858;BME280;58975;51.978;8.472;2024-03-02T15:34:21;98903.91;;;12.97;67.25
4858;BME280;58975;51.978;8.472;2024-03-02T15:39:17;98905.97;;;12.78;67.21
4858;BME280;58975;51.978;8.472;2024-03-02T15:44:14;98904.84;;;12.73;67.21
4858;BME280;58975;51.978;8.472;2024-03-02T15:49:11;98906.38;;;12.59;67.42
4858;BME280;58975;51.978;8.472;2024-03-02T15:54:07;98916.78;;;12.46;67.36
4858;BME280;58975;51.978;8.472;2024-03-02T15:59:04;98910.50;;;12.23;68.04
4858;BME280;58975;51.978;8.472;2024-03-02T16:04:01;98920.16;;;12.08;68.91
4858;BME280;58975;51.978;8.472;2024-03-02T16:08:58;98910.19;;;11.94;68.75
4858;BME280;58975;51.978;8.472;2024-03-02T16:13:56;98910.69;;;11.89;68.45
4858;BME280;58975;51.978;8.472;2024-03-02T16:18:52;98907.34;;;11.71;69.12
4858;BME280;58975;51.978;8.472;2024-03-02T16:23:49;98916.16;;;11.55;70.05
4858;BME280;58975;51.978;8.472;2024-03-02T16:28:45;98921.16;;;11.42;70.39
4858;BME280;58975;51.978;8.472;2024-03-02T16:33:42;98932.78;;;11.25;70.90
4858;BME280;58975;51.978;8.472;2024-03-02T16:38:40;98937.75;;;11.20;71.48
4858;BME280;58975;51.978;8.472;2024-03-02T16:43:37;98922.78;;;11.19;71.04
4858;BME280;58975;51.978;8.472;2024-03-02T16:48:34;98938.69;;;11.03;72.13
4858;BME280;58975;51.978;8.472;2024-03-02T16:53:33;98951.97;;;10.86;72.31
4858;BME280;58975;51.978;8.472;2024-03-02T16:58:30;98948.03;;;10.65;72.90
4858;BME280;58975;51.978;8.472;2024-03-02T17:03:27;98958.41;;;10.42;74.23
4858;BME280;58975;51.978;8.472;2024-03-02T17:08:23;98966.28;;;10.26;75.31
4858;BME280;58975;51.978;8.472;2024-03-02T17:13:20;98976.63;;;10.11;76.45
4858;BME280;58975;51.978;8.472;2024-03-02T17:18:16;98983.63;;;9.94;76.78
4858;BME280;58975;51.978;8.472;2024-03-02T17:23:13;98983.88;;;9.83;77.66
4858;BME280;58975;51.978;8.472;2024-03-02T17:28:23;98987.13;;;9.77;77.64
4858;BME280;58975;51.978;8.472;2024-03-02T17:33:25;98986.69;;;9.64;78.25
4858;BME280;58975;51.978;8.472;2024-03-02T17:38:22;98990.91;;;9.57;78.50
4858;BME280;58975;51.978;8.472;2024-03-02T17:43:19;98992.91;;;9.55;78.61
4858;BME280;58975;51.978;8.472;2024-03-02T17:48:15;98999.44;;;9.43;78.42
4858;BME280;58975;51.978;8.472;2024-03-02T17:53:13;99015.28;;;9.35;79.06
4858;BME280;58975;51.978;8.472;2024-03-02T17:58:10;98995.53;;;9.20;79.08
4858;BME280;58975;51.978;8.472;2024-03-02T18:03:06;98998.47;;;9.17;79.14
4858;BME280;58975;51.978;8.472;2024-03-02T18:08:03;99007.72;;;8.85;80.37
4858;BME280;58975;51.978;8.472;2024-03-02T18:13:00;99003.31;;;8.67;80.88
4858;BME280;58975;51.978;8.472;2024-03-02T18:17:57;99003.66;;;8.54;81.42
4858;BME280;58975;51.978;8.472;2024-03-02T18:22:53;99004.81;;;8.23;82.72
4858;BME280;58975;51.978;8.472;2024-03-02T18:27:53;99006.91;;;8.09;83.61
4858;BME280;58975;51.978;8.472;2024-03-02T18:32:49;99009.84;;;8.06;84.42
4858;BME280;58975;51.978;8.472;2024-03-02T18:37:46;99008.59;;;7.91;84.66
4858;BME280;58975;51.978;8.472;2024-03-02T18:42:42;99008.88;;;8.07;85.60
4858;BME280;58975;51.978;8.472;2024-03-02T18:47:39;99008.88;;;7.98;85.76
4858;BME280;58975;51.978;8.472;2024-03-02T18:52:36;99013.91;;;7.91;85.99
4858;BME280;58975;51.978;8.472;2024-03-02T18:57:33;99016.81;;;7.88;87.00
4858;BME280;58975;51.978;8.472;2024-03-02T19:02:30;99012.66;;;7.95;87.56
4858;BME280;58975;51.978;8.472;2024-03-02T19:07:26;99011.50;;;8.17;87.32
4858;BME280;58975;51.978;8.472;2024-03-02T19:12:23;99015.97;;;8.26;86.52
4858;BME280;58975;51.978;8.472;2024-03-02T19:17:19;99005.19;;;8.28;85.84
4858;BME280;58975;51.978;8.472;2024-03-02T19:22:16;98997.00;;;8.31;85.93
4858;BME280;58975;51.978;8.472;2024-03-02T19:27:13;98997.00;;;8.31;85.89
4858;BME280;58975;51.978;8.472;2024-03-02T19:32:09;99001.59;;;8.29;85.99
4858;BME280;58975;51.978;8.472;2024-03-02T19:37:10;98998.94;;;8.29;85.97
4858;BME280;58975;51.978;8.472;2024-03-02T19:42:07;99005.09;;;8.29;85.88
4858;BME280;58975;51.978;8.472;2024-03-02T19:47:04;99011.25;;;8.30;85.32
4858;BME280;58975;51.978;8.472;2024-03-02T19:52:00;99014.16;;;8.27;85.32
4858;BME280;58975;51.978;8.472;2024-03-02T19:56:57;99004.66;;;8.34;85.36
4858;BME280;58975;51.978;8.472;2024-03-02T20:01:53;99000.47;;;8.41;84.56
4858;BME280;58975;51.978;8.472;2024-03-02T20:06:53;98993.28;;;8.51;84.03
4858;BME280;58975;51.978;8.472;2024-03-02T20:11:50;98995.13;;;8.50;83.42
4858;BME280;58975;51.978;8.472;2024-03-02T20:16:47;98998.34;;;8.44;83.64
4858;BME280;58975;51.978;8.472;2024-03-02T20:21:44;98986.78;;;8.45;83.60
4858;BME280;58975;51.978;8.472;2024-03-02T20:26:40;98982.13;;;8.47;83.72
4858;BME280;58975;51.978;8.472;2024-03-02T20:31:37;98978.50;;;8.48;84.34
4858;BME280;58975;51.978;8.472;2024-03-02T20:36:33;98980.44;;;8.56;84.72
4858;BME280;58975;51.978;8.472;2024-03-02T20:41:30;98981.53;;;8.63;85.56
4858;BME280;58975;51.978;8.472;2024-03-02T20:46:26;98982.47;;;8.72;86.32
4858;BME280;58975;51.978;8.472;2024-03-02T20:51:23;98977.34;;;8.70;86.80
4858;BME280;58975;51.978;8.472;2024-03-02T20:56:25;98979.56;;;8.65;87.99
4858;BME280;58975;51.978;8.472;2024-03-02T21:01:22;98972.88;;;8.61;88.28
4858;BME280;58975;51.978;8.472;2024-03-02T21:06:19;98987.72;;;8.54;89.35
4858;BME280;58975;51.978;8.472;2024-03-02T21:11:16;98977.44;;;8.41;89.90
4858;BME280;58975;51.978;8.472;2024-03-02T21:16:15;98978.81;;;8.36;91.09
4858;BME280;58975;51.978;8.472;2024-03-02T21:21:13;98977.44;;;8.32;92.14
4858;BME280;58975;51.978;8.472;2024-03-02T21:26:09;98971.97;;;8.24;92.53
4858;BME280;58975;51.978;8.472;2024-03-02T21:31:06;98967.69;;;8.23;94.08
4858;BME280;58975;51.978;8.472;2024-03-02T21:36:02;98968.53;;;8.23;94.56
4858;BME280;58975;51.978;8.472;2024-03-02T21:41:00;98965.69;;;8.25;95.12
4858;BME280;58975;51.978;8.472;2024-03-02T21:45:57;98967.69;;;8.23;95.88
4858;BME280;58975;51.978;8.472;2024-03-02T21:50:53;98962.38;;;8.23;96.62
4858;BME280;58975;51.978;8.472;2024-03-02T21:55:50;98959.00;;;8.21;96.83
4858;BME280;58975;51.978;8.472;2024-03-02T22:00:46;98960.69;;;8.22;96.88
4858;BME280;58975;51.978;8.472;2024-03-02T22:05:43;98960.84;;;8.30;96.81
4858;BME280;58975;51.978;8.472;2024-03-02T22:10:39;98955.09;;;8.25;96.84
4858;BME280;58975;51.978;8.472;2024-03-02T22:15:36;98951.22;;;8.29;97.00
4858;BME280;58975;51.978;8.472;2024-03-02T22:20:32;98940.72;;;8.37;96.55
4858;BME280;58975;51.978;8.472;2024-03-02T22:25:29;98934.72;;;8.35;96.54
4858;BME280;58975;51.978;8.472;2024-03-02T22:30:25;98939.88;;;8.36;96.39
4858;BME280;58975;51.978;8.472;2024-03-02T22:35:24;98942.09;;;8.41;95.75
4858;BME280;58975;51.978;8.472;2024-03-02T22:40:20;98924.13;;;8.35;96.13
4858;BME280;58975;51.978;8.472;2024-03-02T22:45:19;98931.06;;;8.36;95.77
4858;BME280;58975;51.978;8.472;2024-03-02T22:50:16;98920.75;;;8.33;96.37
4858;BME280;58975;51.978;8.472;2024-03-02T22:55:12;98925.22;;;8.32;96.46
4858;BME280;58975;51.978;8.472;2024-03-02T23:00:09;98933.06;;;8.34;96.19
4858;BME280;58975;51.978;8.472;2024-03-02T23:05:18;98924.69;;;8.29;96.06
4858;BME280;58975;51.978;8.472;2024-03-02T23:10:15;98925.63;;;8.28;96.65
4858;BME280;58975;51.978;8.472;2024-03-02T23:15:12;98924.41;;;8.22;96.56
4858;BME280;58975;51.978;8.472;2024-03-02T23:20:09;98925.38;;;8.21;97.03
4858;BME280;58975;51.978;8.472;2024-03-02T23:25:05;98925.38;;;8.21;97.26
4858;BME280;58975;51.978;8.472;2024-03-02T23:30:03;98929.44;;;8.16;97.92
4858;BME280;58975;51.978;8.472;2024-03-02T23:35:00;98921.09;;;8.11;98.30
4858;BME280;58975;51.978;8.472;2024-03-02T23:39:56;98912.28;;;8.10;98.39
4858;BME280;58975;51.978;8.472;2024-03-02T23:45:08;98915.91;;;8.09;99.17
4858;BME280;58975;51.978;8.472;2024-03-02T23:50:05;98914.41;;;8.06;99.23
4858;BME280;58975;51.978;8.472;2024-03-02T23:55:02;98911.34;;;8.01;99.29
